Time;durP1;ratioP1;P1;durP2;ratioP2;P2;SDS_P1;SDS_P2;PMS_P1;PMS_P2;Temp;Humidity;BMP_temperature;BMP_pressure;BME280_temperature;BME280_humidity;BME280_pressure;Samples;Min_cycle;Max_cycle;Signal;HPM_P1;HPM_P2
2023/05/19 00:01:46;;;;;;;4.82;2.38;;;8.50;99.90;;;;;;5013182;28;20034;-80
2023/05/19 00:04:14;;;;;;;6.85;2.55;;;8.50;99.90;;;;;;4995354;28;20065;-79
2023/05/19 00:06:41;;;;;;;3.70;1.70;;;8.40;99.90;;;;;;4996230;28;20054;-79
2023/05/19 00:09:09;;;;;;;3.60;1.95;;;8.40;99.90;;;;;;5007499;28;20034;-78
2023/05/19 00:11:36;;;;;;;4.60;1.92;;;8.20;99.90;;;;;;5013822;28;20033;-79
2023/05/19 00:14:05;;;;;;;4.60;2.08;;;8.00;99.90;;;;;;5014117;28;20026;-79
2023/05/19 00:16:32;;;;;;;6.65;2.63;;;7.90;99.90;;;;;;5014445;28;20053;-79
2023/05/19 00:19:00;;;;;;;6.70;2.40;;;7.80;99.90;;;;;;5011399;28;20045;-79
2023/05/19 00:21:28;;;;;;;4.15;1.67;;;7.80;99.90;;;;;;5013208;28;20384;-80
2023/05/19 00:23:54;;;;;;;6.75;2.10;;;7.70;99.90;;;;;;5029024;28;20395;-79
2023/05/19 00:26:21;;;;;;;9.60;2.13;;;7.70;99.90;;;;;;5011575;28;20038;-80
2023/05/19 00:28:58;;;;;;;8.35;2.78;;;7.60;99.90;;;;;;5009974;28;20375;-79
2023/05/19 00:31:24;;;;;;;4.93;1.95;;;7.60;99.90;;;;;;4991994;28;20046;-81
2023/05/19 00:33:51;;;;;;;6.18;2.38;;;7.60;99.90;;;;;;5012885;28;20373;-80
2023/05/19 00:36:17;;;;;;;11.43;1.90;;;7.60;99.90;;;;;;5011530;28;20125;-80
2023/05/19 00:38:43;;;;;;;5.28;1.42;;;7.70;99.90;;;;;;5009674;28;20038;-86
2023/05/19 00:41:09;;;;;;;3.22;1.63;;;7.80;99.90;;;;;;5011595;28;20048;-79
2023/05/19 00:43:36;;;;;;;5.55;1.75;;;7.70;99.90;;;;;;5020336;28;20061;-79
2023/05/19 00:46:02;;;;;;;7.65;2.40;;;7.80;99.90;;;;;;5013472;28;20029;-80
2023/05/19 00:48:28;;;;;;;4.45;1.42;;;7.80;99.90;;;;;;5014155;28;20030;-79
2023/05/19 00:51:03;;;;;;;5.95;1.90;;;7.80;99.90;;;;;;5012489;28;20032;-80
2023/05/19 00:53:30;;;;;;;4.38;2.03;;;7.90;99.90;;;;;;5012927;28;20037;-79
2023/05/19 00:55:57;;;;;;;4.20;2.05;;;7.80;99.90;;;;;;5012231;28;20030;-80
2023/05/19 00:58:28;;;;;;;5.30;1.88;;;7.60;99.90;;;;;;5012478;28;20041;-80
2023/05/19 01:01:06;;;;;;;7.20;2.20;;;7.60;99.90;;;;;;5009211;28;20121;-80
2023/05/19 01:03:34;;;;;;;5.05;2.03;;;7.70;99.90;;;;;;5008304;28;20463;-79
2023/05/19 01:06:04;;;;;;;8.23;1.80;;;8.00;99.90;;;;;;5013116;28;20038;-79
2023/05/19 01:08:32;;;;;;;8.43;1.70;;;7.90;99.90;;;;;;5001813;28;20053;-85
2023/05/19 01:10:58;;;;;;;5.43;2.40;;;7.90;99.90;;;;;;5008633;28;20030;-80
2023/05/19 01:13:26;;;;;;;5.85;2.30;;;7.80;99.90;;;;;;5013674;28;20367;-81
2023/05/19 01:15:59;;;;;;;7.03;2.20;;;7.70;99.90;;;;;;5013540;28;20026;-80
2023/05/19 01:19:21;;;;;;;5.03;1.65;;;7.50;99.90;;;;;;5010210;28;20034;-80
2023/05/19 01:21:57;;;;;;;9.52;3.03;;;7.50;99.90;;;;;;5002041;28;20056;-82
2023/05/19 01:24:43;;;;;;;7.82;3.00;;;7.40;99.90;;;;;;5008628;28;20037;-80
2023/05/19 01:27:19;;;;;;;5.97;2.10;;;7.40;99.90;;;;;;5027900;28;20038;-80
2023/05/19 01:30:45;;;;;;;5.30;2.20;;;7.40;99.90;;;;;;5010436;28;20034;-80
2023/05/19 01:33:13;;;;;;;5.70;2.80;;;7.40;99.90;;;;;;4989414;28;20054;-80
2023/05/19 01:35:42;;;;;;;7.82;2.05;;;7.40;99.90;;;;;;5011795;28;20636;-80
2023/05/19 01:38:10;;;;;;;4.88;2.35;;;7.30;99.90;;;;;;5011240;28;20048;-80
2023/05/19 01:40:38;;;;;;;9.93;2.90;;;7.30;99.90;;;;;;5012067;28;20034;-81
2023/05/19 01:43:06;;;;;;;6.07;2.10;;;7.30;99.90;;;;;;5011100;28;20030;-80
2023/05/19 01:45:33;;;;;;;4.30;2.30;;;7.30;99.90;;;;;;5015417;28;20034;-80
2023/05/19 01:48:02;;;;;;;4.85;2.88;;;7.20;99.90;;;;;;5011587;28;20026;-80
2023/05/19 01:50:32;;;;;;;3.88;2.10;;;7.10;99.90;;;;;;5011966;28;20038;-80
2023/05/19 01:52:59;;;;;;;4.18;2.10;;;7.10;99.90;;;;;;5011056;28;20037;-80
2023/05/19 01:55:26;;;;;;;5.53;2.90;;;7.00;99.90;;;;;;5017379;28;20037;-80
2023/05/19 01:58:30;;;;;;;3.55;2.50;;;6.90;99.90;;;;;;5012728;28;20029;-80
2023/05/19 02:01:17;;;;;;;6.65;2.58;;;6.90;99.90;;;;;;4991751;28;20049;-82
2023/05/19 02:03:44;;;;;;;5.75;3.08;;;6.80;99.90;;;;;;5026744;28;20029;-82
2023/05/19 02:06:17;;;;;;;8.73;2.72;;;6.80;99.90;;;;;;5010824;28;20042;-80
2023/05/19 02:08:57;;;;;;;9.95;2.97;;;6.70;99.90;;;;;;5026631;28;20191;-84
2023/05/19 02:11:56;;;;;;;16.48;3.33;;;6.60;99.90;;;;;;5011187;28;20337;-80
2023/05/19 02:14:34;;;;;;;6.32;3.05;;;6.60;99.90;;;;;;5023863;28;20038;-79
2023/05/19 02:17:03;;;;;;;5.07;2.90;;;6.50;99.90;;;;;;5010407;28;20061;-80
2023/05/19 02:19:37;;;;;;;5.47;2.70;;;6.40;99.90;;;;;;5009617;28;20046;-79
2023/05/19 02:22:03;;;;;;;6.40;2.15;;;6.30;99.90;;;;;;5010142;28;20041;-80
2023/05/19 02:24:29;;;;;;;8.27;2.88;;;6.20;99.90;;;;;;5012465;28;20037;-79
2023/05/19 02:26:58;;;;;;;8.20;3.20;;;6.10;99.90;;;;;;5007123;28;20049;-81
2023/05/19 02:29:24;;;;;;;5.30;2.67;;;6.30;99.90;;;;;;4984421;28;20038;-81
2023/05/19 02:31:50;;;;;;;7.50;2.95;;;6.30;99.90;;;;;;5010321;28;20509;-79
2023/05/19 02:34:18;;;;;;;7.55;3.15;;;6.40;99.90;;;;;;5007129;28;20100;-79
2023/05/19 02:36:44;;;;;;;5.95;3.15;;;6.40;99.90;;;;;;5012934;28;20037;-80
2023/05/19 02:39:11;;;;;;;5.65;2.60;;;6.30;99.90;;;;;;5009585;28;20033;-80
2023/05/19 02:41:37;;;;;;;7.85;3.35;;;6.30;99.90;;;;;;5010719;28;20045;-80
2023/05/19 02:44:04;;;;;;;5.72;3.60;;;6.10;99.90;;;;;;5018963;28;20030;-80
2023/05/19 02:46:31;;;;;;;8.45;2.90;;;6.00;99.90;;;;;;5011036;28;20037;-80
2023/05/19 02:48:58;;;;;;;7.50;3.10;;;5.90;99.90;;;;;;5000058;28;20025;-85
2023/05/19 02:51:24;;;;;;;11.57;3.50;;;6.00;99.90;;;;;;4999066;28;20463;-80
2023/05/19 02:53:50;;;;;;;5.93;2.92;;;6.10;99.90;;;;;;5001575;28;20076;-80
2023/05/19 02:56:17;;;;;;;6.63;2.60;;;6.10;99.90;;;;;;5004337;28;20093;-80
2023/05/19 02:58:43;;;;;;;8.95;3.03;;;6.10;99.90;;;;;;5000467;28;20042;-80
2023/05/19 03:01:09;;;;;;;6.38;3.10;;;6.00;99.90;;;;;;5012179;28;20053;-79
2023/05/19 03:03:36;;;;;;;7.82;3.17;;;5.90;99.90;;;;;;5010611;28;20037;-79
2023/05/19 03:06:02;;;;;;;6.32;2.95;;;5.90;99.90;;;;;;5010574;28;20452;-80
2023/05/19 03:08:28;;;;;;;7.30;3.33;;;5.80;99.90;;;;;;5010664;28;20042;-83
2023/05/19 03:10:55;;;;;;;8.68;3.38;;;5.70;99.90;;;;;;5004314;28;20057;-79
2023/05/19 03:13:21;;;;;;;9.88;3.15;;;5.70;99.90;;;;;;5011344;28;20033;-80
2023/05/19 03:15:49;;;;;;;8.23;3.20;;;5.70;99.90;;;;;;5010543;28;20057;-80
2023/05/19 03:18:15;;;;;;;10.40;3.58;;;5.60;99.90;;;;;;5008835;28;20043;-80
2023/05/19 03:20:43;;;;;;;11.60;3.38;;;5.70;99.90;;;;;;5025212;28;20053;-79
2023/05/19 03:23:09;;;;;;;4.72;3.08;;;5.60;99.90;;;;;;5009822;28;20026;-79
2023/05/19 03:25:36;;;;;;;6.28;2.75;;;5.60;99.90;;;;;;5010282;28;20045;-79
2023/05/19 03:28:02;;;;;;;6.18;3.10;;;5.50;99.90;;;;;;5013791;28;20034;-80
2023/05/19 03:30:28;;;;;;;7.68;4.43;;;5.50;99.90;;;;;;5005330;28;20049;-79
2023/05/19 03:33:11;;;;;;;8.02;3.35;;;5.50;99.90;;;;;;5010272;28;20046;-80
2023/05/19 03:35:39;;;;;;;5.47;3.70;;;5.70;99.90;;;;;;5009022;28;20057;-79
2023/05/19 03:38:05;;;;;;;6.22;3.40;;;5.80;99.90;;;;;;5009005;28;20042;-79
2023/05/19 03:40:32;;;;;;;10.48;3.80;;;5.90;99.90;;;;;;4996936;28;20042;-79
2023/05/19 03:43:04;;;;;;;7.93;3.30;;;5.90;99.90;;;;;;5013483;28;20038;-80
2023/05/19 03:45:32;;;;;;;9.60;3.08;;;5.90;99.90;;;;;;5013896;28;20038;-80
2023/05/19 03:47:59;;;;;;;6.35;3.35;;;6.00;99.90;;;;;;5011634;28;20042;-79
2023/05/19 03:50:47;;;;;;;5.15;3.25;;;6.00;99.90;;;;;;4977843;28;20041;-79
2023/05/19 03:53:21;;;;;;;6.20;3.40;;;5.90;99.90;;;;;;5010254;28;20038;-80
2023/05/19 03:55:48;;;;;;;4.22;2.83;;;6.00;99.90;;;;;;5009871;28;20597;-79
2023/05/19 03:58:14;;;;;;;8.93;4.85;;;6.00;99.90;;;;;;5013282;28;20041;-79
2023/05/19 04:00:41;;;;;;;10.50;3.85;;;6.00;99.90;;;;;;5013759;28;20034;-79
2023/05/19 04:03:07;;;;;;;7.40;3.47;;;6.10;99.90;;;;;;5014615;28;20030;-80
2023/05/19 04:05:33;;;;;;;5.53;3.72;;;6.20;99.90;;;;;;5011565;28;20371;-80
2023/05/19 04:07:59;;;;;;;6.32;3.70;;;6.30;99.90;;;;;;5028500;28;20387;-80
2023/05/19 04:10:26;;;;;;;5.50;3.38;;;6.30;99.90;;;;;;5025947;28;20383;-80
2023/05/19 04:12:54;;;;;;;8.48;3.58;;;6.30;99.90;;;;;;5010642;28;20022;-80
2023/05/19 04:15:20;;;;;;;6.03;4.03;;;6.40;99.90;;;;;;5010011;28;20387;-80
2023/05/19 04:17:46;;;;;;;9.65;4.78;;;6.40;99.90;;;;;;5014941;28;20022;-80
2023/05/19 04:20:12;;;;;;;8.80;3.75;;;6.50;99.90;;;;;;5003399;28;20042;-80
2023/05/19 04:22:38;;;;;;;8.40;3.78;;;6.60;99.90;;;;;;5014232;28;20025;-80
2023/05/19 04:25:06;;;;;;;7.22;3.75;;;6.70;99.90;;;;;;5013802;28;20026;-79
2023/05/19 04:27:35;;;;;;;6.50;3.08;;;6.80;99.90;;;;;;5017308;28;20030;-79
2023/05/19 04:30:02;;;;;;;9.43;4.05;;;6.90;99.90;;;;;;5010339;28;20049;-80
2023/05/19 04:32:29;;;;;;;7.35;3.05;;;7.00;99.90;;;;;;5014035;28;20045;-79
2023/05/19 04:34:58;;;;;;;7.65;2.95;;;7.10;99.90;;;;;;5012542;28;20062;-80
2023/05/19 04:37:26;;;;;;;6.30;3.60;;;7.30;99.90;;;;;;5011822;28;20071;-80
2023/05/19 04:39:53;;;;;;;8.43;3.22;;;7.40;99.90;;;;;;5026935;28;20034;-84
2023/05/19 04:42:24;;;;;;;7.57;3.38;;;7.50;99.90;;;;;;5002632;28;20046;-80
2023/05/19 04:44:51;;;;;;;6.85;3.22;;;7.50;99.90;;;;;;4996993;28;20042;-80
2023/05/19 04:47:20;;;;;;;6.13;3.05;;;7.70;99.90;;;;;;5012366;28;20478;-79
2023/05/19 04:49:46;;;;;;;8.48;3.35;;;7.80;99.90;;;;;;5011725;28;20053;-83
2023/05/19 04:52:14;;;;;;;4.95;2.22;;;7.90;99.90;;;;;;5013323;28;20030;-80
2023/05/19 04:54:40;;;;;;;8.07;3.05;;;7.80;99.90;;;;;;4991598;28;20460;-80
2023/05/19 04:57:11;;;;;;;9.35;3.75;;;7.80;99.90;;;;;;5011868;28;20375;-79
2023/05/19 04:59:39;;;;;;;4.00;2.55;;;7.90;99.90;;;;;;5009148;28;20033;-79
2023/05/19 05:02:07;;;;;;;5.45;3.00;;;7.80;99.90;;;;;;5010662;28;20042;-79
2023/05/19 05:04:35;;;;;;;8.30;2.65;;;7.90;99.90;;;;;;5012313;28;20042;-80
2023/05/19 05:07:01;;;;;;;7.25;2.92;;;7.90;99.90;;;;;;5010495;28;20034;-79
2023/05/19 05:09:28;;;;;;;5.68;2.33;;;7.90;99.90;;;;;;5030060;28;20057;-83
2023/05/19 05:11:57;;;;;;;11.25;3.00;;;8.00;99.90;;;;;;5009287;28;20042;-78
2023/05/19 05:14:24;;;;;;;8.73;2.38;;;8.00;99.90;;;;;;4994796;28;20041;-78
2023/05/19 05:16:51;;;;;;;8.95;3.25;;;8.00;99.90;;;;;;5013033;28;20038;-77
2023/05/19 05:19:22;;;;;;;;;;;8.00;99.90;;;;;;5007777;28;20050;-77
2023/05/19 05:21:48;;;;;;;7.07;2.38;;;8.00;99.90;;;;;;5008540;28;19913;-78
2023/05/19 05:24:15;;;;;;;6.88;2.30;;;8.10;99.90;;;;;;4996669;28;20038;-78
2023/05/19 05:26:47;;;;;;;5.13;2.28;;;8.20;99.90;;;;;;5013711;28;20045;-78
2023/05/19 05:29:13;;;;;;;9.65;3.03;;;8.30;99.90;;;;;;5009463;28;20045;-78
2023/05/19 05:31:39;;;;;;;4.22;1.92;;;8.50;99.90;;;;;;5011853;28;20037;-78
2023/05/19 05:34:06;;;;;;;9.85;2.10;;;8.70;99.90;;;;;;5009309;28;20045;-84
2023/05/19 05:36:33;;;;;;;8.13;2.17;;;8.80;99.90;;;;;;5010523;28;20504;-78
2023/05/19 05:39:01;;;;;;;7.70;3.03;;;9.00;99.90;;;;;;5028158;28;20050;-77
2023/05/19 05:41:33;;;;;;;6.30;2.22;;;9.30;97.90;;;;;;5011186;28;20479;-78
2023/05/19 05:44:02;;;;;;;3.88;1.98;;;9.40;94.40;;;;;;5011112;28;20061;-77
2023/05/19 05:46:29;;;;;;;4.15;2.00;;;9.80;73.60;;;;;;5010063;28;20057;-78
2023/05/19 05:48:56;;;;;;;8.23;3.88;;;10.10;68.30;;;;;;5006157;28;20485;-78
2023/05/19 05:51:23;;;;;;;4.45;2.28;;;10.10;46.20;;;;;;5006313;28;20049;-78
2023/05/19 05:53:53;;;;;;;7.80;2.03;;;9.80;58.00;;;;;;5025010;28;20046;-79
2023/05/19 05:56:21;;;;;;;7.82;3.15;;;9.90;54.10;;;;;;5003309;28;20049;-79
2023/05/19 05:58:51;;;;;;;6.93;2.10;;;10.00;58.10;;;;;;5027753;28;20065;-80
2023/05/19 06:01:17;;;;;;;6.53;2.08;;;10.20;43.40;;;;;;4991295;28;20304;-80
2023/05/19 06:03:44;;;;;;;5.75;1.88;;;10.50;32.30;;;;;;5010320;28;20390;-80
2023/05/19 06:06:13;;;;;;;10.38;2.08;;;10.60;22.00;;;;;;5026712;28;20038;-79
2023/05/19 06:08:40;;;;;;;6.32;1.80;;;10.70;15.90;;;;;;5026978;28;20042;-80
2023/05/19 06:11:08;;;;;;;6.15;2.10;;;10.70;18.80;;;;;;5009233;28;20038;-81
2023/05/19 06:13:35;;;;;;;5.88;1.92;;;11.10;12.90;;;;;;4989358;28;20046;-82
2023/05/19 06:16:05;;;;;;;7.40;1.77;;;11.80;1.00;;;;;;5026202;28;20038;-77
2023/05/19 06:18:38;;;;;;;4.78;1.40;;;12.60;1.00;;;;;;5027081;28;20041;-80
2023/05/19 06:21:04;;;;;;;4.90;1.48;;;12.90;1.00;;;;;;5010975;28;20034;-79
2023/05/19 06:23:30;;;;;;;5.07;1.63;;;13.70;1.00;;;;;;4992102;28;20042;-80
2023/05/19 06:25:56;;;;;;;3.45;1.38;;;15.10;1.00;;;;;;5027279;28;20049;-83
2023/05/19 06:28:23;;;;;;;5.80;1.75;;;15.60;99.90;;;;;;5010338;28;20371;-81
2023/05/19 06:30:51;;;;;;;5.60;1.65;;;15.40;99.90;;;;;;5006258;28;20042;-81
2023/05/19 06:33:26;;;;;;;4.50;1.25;;;16.00;99.90;;;;;;5013859;28;20499;-75
2023/05/19 06:35:53;;;;;;;5.65;1.60;;;15.90;99.90;;;;;;5000007;28;20030;-75
2023/05/19 06:38:20;;;;;;;6.35;1.70;;;15.90;99.90;;;;;;5022050;28;20045;-84
2023/05/19 06:40:47;;;;;;;6.20;1.77;;;16.80;99.90;;;;;;5004708;28;20043;-78
2023/05/19 06:43:13;;;;;;;5.53;1.17;;;16.00;99.90;;;;;;5021370;28;20053;-78
2023/05/19 06:45:53;;;;;;;4.00;1.10;;;15.60;99.90;;;;;;5004764;28;20057;-79
2023/05/19 06:48:19;;;;;;;4.75;1.30;;;14.90;99.90;;;;;;4986330;28;20537;-81
2023/05/19 06:50:46;;;;;;;4.00;1.00;;;15.00;99.90;;;;;;5000161;28;20038;-82
2023/05/19 06:53:13;;;;;;;3.25;1.38;;;15.00;99.90;;;;;;5003130;28;20040;-83
2023/05/19 06:55:39;;;;;;;4.80;1.30;;;16.30;99.90;;;;;;5007265;28;20034;-78
2023/05/19 06:58:07;;;;;;;4.55;1.30;;;15.90;99.90;;;;;;5021531;28;20464;-77
2023/05/19 07:00:33;;;;;;;5.63;1.55;;;15.40;99.90;;;;;;5009513;28;20038;-76
2023/05/19 07:03:00;;;;;;;5.30;1.20;;;15.10;99.90;;;;;;4998927;28;20038;-78
2023/05/19 07:05:26;;;;;;;6.05;2.25;;;15.40;99.90;;;;;;5009658;28;20046;-78
2023/05/19 07:07:56;;;;;;;5.00;1.25;;;16.60;99.90;;;;;;5007859;28;20042;-78
2023/05/19 07:10:26;;;;;;;4.72;1.25;;;16.60;99.90;;;;;;5007349;28;20029;-77
2023/05/19 07:12:53;;;;;;;5.65;2.15;;;16.70;99.90;;;;;;5010465;28;20037;-79
2023/05/19 07:15:23;;;;;;;7.50;1.85;;;17.40;99.90;;;;;;5011285;28;20037;-79
2023/05/19 07:17:49;;;;;;;3.28;1.40;;;18.10;99.90;;;;;;5015620;28;20053;-80
2023/05/19 07:20:15;;;;;;;4.80;1.35;;;17.90;99.90;;;;;;5016949;28;20041;-80
2023/05/19 07:22:42;;;;;;;4.63;1.30;;;17.20;99.90;;;;;;4999985;28;20485;-79
2023/05/19 07:25:08;;;;;;;3.17;1.35;;;16.60;99.90;;;;;;5015488;28;20026;-76
2023/05/19 07:27:35;;;;;;;4.40;1.65;;;17.80;99.90;;;;;;5029780;28;20064;-78
2023/05/19 07:30:03;;;;;;;4.45;1.33;;;18.30;99.90;;;;;;5014138;28;20029;-78
2023/05/19 07:32:29;;;;;;;6.25;1.67;;;18.20;99.90;;;;;;5024038;28;20054;-80
2023/05/19 07:34:55;;;;;;;2.65;1.30;;;17.60;99.90;;;;;;5006441;28;20040;-77
2023/05/19 07:37:21;;;;;;;3.85;1.55;;;18.70;99.90;;;;;;5013310;28;20386;-78
2023/05/19 07:39:47;;;;;;;3.60;1.30;;;19.30;99.90;;;;;;5002199;28;20356;-78
2023/05/19 07:42:13;;;;;;;2.72;1.25;;;19.30;99.90;;;;;;5013131;28;20048;-79
2023/05/19 07:44:41;;;;;;;4.72;1.45;;;19.80;99.90;;;;;;5015210;28;20128;-75
2023/05/19 07:47:10;;;;;;;3.47;1.38;;;19.80;99.90;;;;;;5013841;28;20042;-76
2023/05/19 07:49:36;;;;;;;3.42;2.05;;;20.00;99.90;;;;;;5013214;28;20034;-77
2023/05/19 07:52:02;;;;;;;3.10;1.15;;;19.40;99.90;;;;;;5007145;28;20046;-76
2023/05/19 07:54:28;;;;;;;4.43;1.63;;;19.40;99.90;;;;;;5013037;28;20046;-78
2023/05/19 07:56:55;;;;;;;5.00;1.40;;;19.50;99.90;;;;;;5014735;28;20032;-76
2023/05/19 07:59:21;;;;;;;5.40;1.48;;;19.40;99.90;;;;;;5013225;28;20048;-77
2023/05/19 08:01:47;;;;;;;6.18;1.13;;;18.70;99.90;;;;;;5008254;28;20408;-76
2023/05/19 08:04:14;;;;;;;3.35;1.33;;;19.90;99.90;;;;;;5013276;28;20041;-77
2023/05/19 08:06:41;;;;;;;4.78;1.77;;;21.10;99.90;;;;;;5014737;28;20398;-78
2023/05/19 08:09:07;;;;;;;4.93;1.65;;;21.20;99.90;;;;;;5014430;28;20356;-78
2023/05/19 08:11:34;;;;;;;3.45;1.25;;;20.30;99.90;;;;;;5012769;28;20034;-79
2023/05/19 08:14:00;;;;;;;5.32;1.52;;;20.00;99.90;;;;;;4993358;28;20038;-79
2023/05/19 08:16:26;;;;;;;3.75;1.65;;;19.90;99.90;;;;;;5014040;28;20037;-79
2023/05/19 08:18:53;;;;;;;3.92;1.17;;;19.40;99.90;;;;;;5017470;28;20049;-79
2023/05/19 08:21:20;;;;;;;3.42;1.50;;;19.60;99.90;;;;;;5019483;28;20041;-76
2023/05/19 08:23:46;;;;;;;2.75;1.25;;;20.60;99.90;;;;;;5028851;28;20041;-80
2023/05/19 08:26:13;;;;;;;4.80;1.10;;;20.20;99.90;;;;;;5029409;28;20038;-83
2023/05/19 08:28:39;;;;;;;4.60;1.48;;;20.40;99.90;;;;;;5029276;28;20049;-78
2023/05/19 08:31:05;;;;;;;3.58;1.27;;;20.90;99.90;;;;;;5008981;28;20041;-79
2023/05/19 08:33:31;;;;;;;5.82;2.20;;;20.80;99.90;;;;;;5007580;28;20034;-79
2023/05/19 08:35:58;;;;;;;5.30;1.65;;;20.90;99.90;;;;;;5027858;28;20038;-77
2023/05/19 08:38:25;;;;;;;3.03;1.13;;;20.90;99.90;;;;;;5013885;28;20033;-82
2023/05/19 08:40:51;;;;;;;6.30;1.55;;;20.30;99.90;;;;;;5014548;28;20036;-78
2023/05/19 08:43:18;;;;;;;4.80;1.42;;;20.40;99.90;;;;;;5012465;28;20022;-79
2023/05/19 08:45:47;;;;;;;5.28;1.55;;;20.70;99.90;;;;;;5013811;28;20029;-82
2023/05/19 08:48:15;;;;;;;4.53;1.60;;;20.30;99.90;;;;;;5014078;28;20348;-76
2023/05/19 08:50:54;;;;;;;6.43;1.45;;;19.10;99.90;;;;;;5012705;28;20351;-76
2023/05/19 08:53:26;;;;;;;2.47;1.10;;;18.40;99.90;;;;;;5024260;28;20053;-76
2023/05/19 08:56:00;;;;;;;5.47;1.38;;;18.40;99.90;;;;;;5008077;28;20037;-81
2023/05/19 08:58:27;;;;;;;5.35;1.20;;;19.60;99.90;;;;;;5013517;28;20045;-78
2023/05/19 09:00:56;;;;;;;6.75;1.45;;;20.50;99.90;;;;;;5012095;28;20034;-77
2023/05/19 09:03:25;;;;;;;4.53;1.63;;;20.90;99.90;;;;;;5025191;28;20038;-79
2023/05/19 09:05:51;;;;;;;4.85;1.30;;;21.00;99.90;;;;;;5008966;28;20069;-79
2023/05/19 09:08:17;;;;;;;4.30;1.40;;;20.60;99.90;;;;;;5009692;28;20037;-80
2023/05/19 09:10:43;;;;;;;3.60;1.17;;;19.20;99.90;;;;;;5013295;28;20026;-80
2023/05/19 09:13:09;;;;;;;5.75;1.45;;;18.60;99.90;;;;;;5012482;28;20057;-76
2023/05/19 09:15:40;;;;;;;3.63;1.00;;;18.70;99.90;;;;;;5012548;28;20034;-77
2023/05/19 09:18:11;;;;;;;7.18;1.45;;;18.50;99.90;;;;;;5013513;28;20064;-78
2023/05/19 09:20:42;;;;;;;2.30;1.10;;;18.80;99.90;;;;;;5006294;28;20041;-77
2023/05/19 09:23:17;;;;;;;4.20;1.60;;;19.30;99.90;;;;;;5005908;28;20056;-78
2023/05/19 09:25:50;;;;;;;5.22;1.20;;;20.20;99.90;;;;;;5013091;28;20025;-77
2023/05/19 09:28:26;;;;;;;4.05;1.45;;;19.60;99.90;;;;;;5013026;28;20022;-86
2023/05/19 09:31:04;;;;;;;8.48;2.15;;;19.70;99.90;;;;;;5013443;28;20054;-80
2023/05/19 09:33:32;;;;;;;5.93;1.58;;;20.10;99.90;;;;;;5001786;28;20712;-79
2023/05/19 09:35:59;;;;;;;3.08;1.02;;;20.40;99.90;;;;;;5006244;28;20045;-77
2023/05/19 09:38:26;;;;;;;5.10;1.30;;;21.20;99.90;;;;;;5013413;28;20041;-82
2023/05/19 09:40:56;;;;;;;3.42;1.10;;;20.50;99.90;;;;;;5013455;28;20037;-77
2023/05/19 09:43:22;;;;;;;3.95;1.17;;;20.60;99.90;;;;;;5012532;28;20033;-84
2023/05/19 09:46:04;;;;;;;7.85;1.40;;;20.90;99.90;;;;;;5025576;28;20030;-79
2023/05/19 09:48:31;;;;;;;4.45;1.40;;;20.20;99.90;;;;;;5025126;28;20029;-78
2023/05/19 09:50:59;;;;;;;4.50;1.00;;;19.40;99.90;;;;;;5012668;28;20085;-80
2023/05/19 09:53:28;;;;;;;3.63;1.38;;;19.10;99.90;;;;;;5007803;28;20376;-76
2023/05/19 09:55:58;;;;;;;3.72;1.58;;;19.00;99.90;;;;;;5011328;28;20478;-77
2023/05/19 09:58:25;;;;;;;6.93;1.52;;;19.30;99.90;;;;;;5012081;28;20021;-78
2023/05/19 10:00:53;;;;;;;2.88;1.23;;;18.70;99.90;;;;;;5012971;28;20029;-76
2023/05/19 10:03:22;;;;;;;3.65;1.13;;;18.40;99.90;;;;;;5012477;28;20044;-86
2023/05/19 10:05:49;;;;;;;6.43;1.35;;;18.80;99.90;;;;;;5010319;28;20030;-83
2023/05/19 10:08:16;;;;;;;2.13;0.90;;;18.50;99.90;;;;;;4990182;28;20038;-80
2023/05/19 10:10:45;;;;;;;4.20;1.00;;;18.40;99.90;;;;;;5011510;28;20053;-77
2023/05/19 10:13:12;;;;;;;4.75;1.10;;;18.80;99.90;;;;;;5008339;28;20046;-79
2023/05/19 10:15:41;;;;;;;5.30;1.17;;;19.30;99.90;;;;;;5009719;28;20038;-79
2023/05/19 10:18:11;;;;;;;4.25;1.45;;;19.70;99.90;;;;;;5012070;28;20037;-81
2023/05/19 10:20:39;;;;;;;3.33;1.30;;;19.90;99.90;;;;;;5010574;28;20049;-77
2023/05/19 10:23:05;;;;;;;4.07;1.35;;;19.60;99.90;;;;;;5011797;28;20040;-80
2023/05/19 10:25:33;;;;;;;6.72;1.60;;;18.60;99.90;;;;;;5010247;28;20029;-79
2023/05/19 10:28:07;;;;;;;4.00;0.80;;;18.90;99.90;;;;;;5011003;28;20025;-75
2023/05/19 10:30:38;;;;;;;2.40;0.95;;;19.20;99.90;;;;;;5010809;28;20030;-76
2023/05/19 10:33:12;;;;;;;5.38;1.20;;;18.80;99.90;;;;;;5012016;28;20038;-79
2023/05/19 10:36:11;;;;;;;2.90;0.95;;;18.50;99.90;;;;;;5009969;28;20046;-76
2023/05/19 10:38:44;;;;;;;5.10;1.13;;;18.70;99.90;;;;;;5002701;28;20356;-79
2023/05/19 10:41:23;;;;;;;2.53;1.20;;;18.60;99.90;;;;;;5025814;28;20057;-81
2023/05/19 10:44:26;;;;;;;4.18;1.38;;;18.70;99.90;;;;;;5008687;28;20034;-77
2023/05/19 10:46:52;;;;;;;4.38;1.30;;;19.00;99.90;;;;;;5004723;28;20041;-76
2023/05/19 10:49:22;;;;;;;3.88;1.33;;;19.10;99.90;;;;;;5002585;28;20034;-79
2023/05/19 10:51:50;;;;;;;3.47;1.15;;;19.50;99.90;;;;;;5003152;28;20045;-77
2023/05/19 10:54:18;;;;;;;4.10;1.67;;;19.50;99.90;;;;;;5012115;28;20463;-78
2023/05/19 10:56:47;;;;;;;6.25;1.42;;;19.60;99.90;;;;;;5004430;28;20366;-78
2023/05/19 10:59:35;;;;;;;4.15;1.15;;;19.20;99.90;;;;;;5011529;28;20037;-82
2023/05/19 11:02:05;;;;;;;2.08;1.30;;;19.10;99.90;;;;;;5005973;28;20363;-77
2023/05/19 11:04:52;;;;;;;3.85;1.30;;;19.20;99.90;;;;;;5007237;28;20045;-78
2023/05/19 11:07:20;;;;;;;4.75;1.33;;;19.30;99.90;;;;;;5011213;28;20025;-78
2023/05/19 11:09:51;;;;;;;3.00;1.15;;;19.30;99.90;;;;;;5009466;28;20030;-79
2023/05/19 11:12:23;;;;;;;6.80;1.20;;;19.50;99.90;;;;;;5024384;28;20393;-77
2023/05/19 11:14:54;;;;;;;4.28;1.38;;;19.60;99.90;;;;;;5008492;28;20041;-79
2023/05/19 11:17:22;;;;;;;5.35;1.33;;;19.40;99.90;;;;;;5012026;28;20026;-78
2023/05/19 11:19:53;;;;;;;4.05;1.10;;;19.30;99.90;;;;;;5007623;28;20030;-78
2023/05/19 11:22:27;;;;;;;5.13;1.55;;;19.20;99.90;;;;;;5009296;28;20045;-75
2023/05/19 11:24:56;;;;;;;4.43;1.55;;;19.30;99.90;;;;;;5023558;28;20041;-78
2023/05/19 11:27:33;;;;;;;3.83;1.15;;;19.20;99.90;;;;;;5024358;28;20054;-78
2023/05/19 11:30:06;;;;;;;3.38;1.13;;;20.00;99.90;;;;;;5011365;28;20037;-76
2023/05/19 11:32:37;;;;;;;3.80;0.93;;;20.20;99.90;;;;;;5010408;28;20064;-77
2023/05/19 11:35:04;;;;;;;5.00;1.63;;;20.20;99.90;;;;;;5009722;28;20050;-75
2023/05/19 11:37:33;;;;;;;4.68;1.58;;;20.00;99.90;;;;;;5010860;28;20486;-77
2023/05/19 11:40:05;;;;;;;3.37;0.97;;;20.30;99.90;;;;;;5025496;28;20031;-75
2023/05/19 11:42:35;;;;;;;3.08;1.48;;;19.90;99.90;;;;;;5010702;28;20053;-77
2023/05/19 11:45:03;;;;;;;5.47;1.48;;;20.00;99.90;;;;;;5009844;28;20041;-76
2023/05/19 11:47:33;;;;;;;3.60;1.50;;;19.70;99.90;;;;;;5010565;28;20038;-76
2023/05/19 11:49:59;;;;;;;;;;;19.80;99.90;;;;;;5002014;28;20033;-76
2023/05/19 11:52:29;;;;;;;3.42;1.30;;;20.00;99.90;;;;;;5025032;28;19917;-77
2023/05/19 11:55:00;;;;;;;2.40;1.03;;;20.00;99.90;;;;;;5009986;28;20394;-76
2023/05/19 11:57:26;;;;;;;3.67;1.42;;;19.70;99.90;;;;;;5010717;28;20041;-75
2023/05/19 11:59:52;;;;;;;5.15;1.77;;;19.70;99.90;;;;;;5012856;28;20026;-80
2023/05/19 12:02:23;;;;;;;3.60;0.93;;;19.60;99.90;;;;;;5012041;28;20025;-80
2023/05/19 12:04:50;;;;;;;2.05;0.98;;;19.30;99.90;;;;;;5011562;28;20037;-82
2023/05/19 12:07:18;;;;;;;5.90;1.27;;;19.50;99.90;;;;;;5005167;28;20054;-78
2023/05/19 12:09:46;;;;;;;2.30;1.02;;;19.40;99.90;;;;;;5010958;28;20052;-77
2023/05/19 12:12:13;;;;;;;3.38;1.20;;;19.30;99.90;;;;;;5010770;28;20045;-75
2023/05/19 12:14:40;;;;;;;6.30;1.75;;;19.20;99.90;;;;;;5014733;28;20038;-76
2023/05/19 12:17:14;;;;;;;4.40;1.55;;;19.30;99.90;;;;;;5012830;28;20040;-77
2023/05/19 12:19:43;;;;;;;3.67;0.85;;;19.60;99.90;;;;;;5010509;28;20030;-78
2023/05/19 12:22:09;;;;;;;2.53;1.30;;;19.60;99.90;;;;;;5013183;28;20056;-77
2023/05/19 12:24:37;;;;;;;6.38;1.52;;;19.50;99.90;;;;;;5014013;28;20101;-79
2023/05/19 12:27:16;;;;;;;2.08;0.98;;;19.50;99.90;;;;;;5011936;28;20033;-78
2023/05/19 12:29:48;;;;;;;3.47;1.25;;;19.80;99.90;;;;;;5017210;28;20034;-77
2023/05/19 12:32:14;;;;;;;11.68;1.30;;;19.50;99.90;;;;;;5013996;28;20451;-79
2023/05/19 12:34:40;;;;;;;3.53;1.58;;;19.50;99.90;;;;;;5013714;28;20049;-84
2023/05/19 12:37:09;;;;;;;4.20;1.98;;;20.00;99.90;;;;;;5012907;28;20033;-76
2023/05/19 12:39:35;;;;;;;3.35;1.20;;;20.00;99.90;;;;;;5016387;28;20365;-76
2023/05/19 12:42:09;;;;;;;11.48;1.80;;;19.50;99.90;;;;;;5012610;28;20045;-80
2023/05/19 12:44:46;;;;;;;4.53;1.45;;;19.70;99.90;;;;;;5003204;28;20054;-77
2023/05/19 12:47:15;;;;;;;6.38;1.55;;;19.90;99.90;;;;;;5026043;28;20034;-81
2023/05/19 12:50:08;;;;;;;3.58;1.23;;;20.30;99.90;;;;;;5028842;28;20048;-79
2023/05/19 12:52:41;;;;;;;3.92;1.13;;;20.40;99.90;;;;;;5006101;28;20053;-77
2023/05/19 12:55:09;;;;;;;3.08;1.48;;;20.20;99.90;;;;;;5013953;28;20026;-77
2023/05/19 12:57:37;;;;;;;6.50;1.67;;;20.40;99.90;;;;;;5010904;28;20467;-78
2023/05/19 13:00:11;;;;;;;2.25;1.13;;;20.40;99.90;;;;;;5010602;28;20034;-76
2023/05/19 13:02:58;;;;;;;4.63;1.27;;;20.30;99.90;;;;;;5012262;28;20037;-77
2023/05/19 13:05:26;;;;;;;5.45;1.67;;;20.00;99.90;;;;;;5013927;28;20038;-78